Time;durP1;ratioP1;P1;durP2;ratioP2;P2;SDS_P1;SDS_P2;PMS_P1;PMS_P2;Temp;Humidity;BMP_temperature;BMP_pressure;BME280_temperature;BME280_humidity;BME280_pressure;Samples;Min_cycle;Max_cycle;Signal;HPM_P1;HPM_P2
2023/09/03 04:01:16;;;;;;;4.67;4.37;;;13.60;99.90;;;;;;6101383;23;20533;-70
2023/09/03 04:03:43;;;;;;;3.90;3.60;;;13.60;99.90;;;;;;6150252;23;20404;-68
2023/09/03 04:06:10;;;;;;;4.10;3.77;;;13.60;99.90;;;;;;6152121;23;20426;-69
2023/09/03 04:08:39;;;;;;;3.83;3.53;;;13.50;99.90;;;;;;6153321;23;20418;-68
2023/09/03 04:11:08;;;;;;;3.27;3.07;;;13.50;99.90;;;;;;6153940;23;20438;-68
2023/09/03 04:13:36;;;;;;;3.13;3.00;;;13.50;99.90;;;;;;6154383;23;20427;-69
2023/09/03 04:16:07;;;;;;;4.23;3.93;;;13.40;99.90;;;;;;6154881;23;20450;-70
2023/09/03 04:18:36;;;;;;;3.37;3.10;;;13.40;99.90;;;;;;6155709;23;20411;-68
2023/09/03 04:21:03;;;;;;;4.00;3.70;;;13.40;99.90;;;;;;6154666;23;21050;-70
2023/09/03 04:23:29;;;;;;;3.63;3.47;;;13.40;99.90;;;;;;6154786;23;20425;-70
2023/09/03 04:25:56;;;;;;;4.40;4.03;;;13.30;99.90;;;;;;6153290;23;20418;-69
2023/09/03 04:28:23;;;;;;;4.97;4.57;;;13.40;99.90;;;;;;6153988;23;20418;-71
2023/09/03 04:30:54;;;;;;;6.70;4.00;;;13.30;99.90;;;;;;6154945;23;20465;-68
2023/09/03 04:33:21;;;;;;;4.77;3.00;;;13.30;99.90;;;;;;6154639;23;20942;-70
2023/09/03 04:35:54;;;;;;;4.90;4.50;;;13.30;99.90;;;;;;6155436;23;20446;-70
2023/09/03 04:38:21;;;;;;;4.47;3.73;;;13.30;99.90;;;;;;6154705;23;20410;-70
2023/09/03 04:40:47;;;;;;;3.70;3.43;;;13.30;99.90;;;;;;6154935;23;20806;-71
2023/09/03 04:43:14;;;;;;;5.00;4.67;;;13.30;99.90;;;;;;6154750;23;20510;-70
2023/09/03 04:45:46;;;;;;;3.30;3.10;;;13.30;99.90;;;;;;6154909;23;20605;-70
2023/09/03 04:48:12;;;;;;;4.27;3.97;;;13.30;99.90;;;;;;6155496;23;20403;-69
2023/09/03 04:50:39;;;;;;;3.87;3.57;;;13.30;99.90;;;;;;6154346;23;20438;-70
2023/09/03 04:53:07;;;;;;;3.57;3.40;;;13.30;99.90;;;;;;6154806;23;20736;-71
2023/09/03 04:55:34;;;;;;;5.00;4.50;;;13.30;99.90;;;;;;6155079;23;20509;-70
2023/09/03 04:58:01;;;;;;;4.40;4.07;;;13.30;99.90;;;;;;6154256;23;20427;-70
2023/09/03 05:00:29;;;;;;;3.77;3.50;;;13.30;99.90;;;;;;6154086;23;20741;-71
2023/09/03 05:02:56;;;;;;;3.80;3.50;;;13.30;99.90;;;;;;6155267;23;20407;-70
2023/09/03 05:05:23;;;;;;;6.47;4.23;;;13.30;99.90;;;;;;6155208;23;20735;-70
2023/09/03 05:07:51;;;;;;;5.00;4.43;;;13.40;99.90;;;;;;6152541;23;20529;-70
2023/09/03 05:10:19;;;;;;;4.80;3.77;;;13.40;99.90;;;;;;6154494;23;20521;-70
2023/09/03 05:12:46;;;;;;;7.60;3.87;;;13.40;99.90;;;;;;6154556;23;20433;-70
2023/09/03 05:15:13;;;;;;;3.87;3.67;;;13.40;99.90;;;;;;6154962;23;20426;-70
2023/09/03 05:17:41;;;;;;;4.10;3.63;;;13.50;99.90;;;;;;6154839;23;20427;-69
2023/09/03 05:20:09;;;;;;;4.50;3.70;;;13.50;99.90;;;;;;6155039;23;20419;-69
2023/09/03 05:22:36;;;;;;;4.63;4.27;;;13.50;99.90;;;;;;6154491;23;20477;-69
2023/09/03 05:25:03;;;;;;;3.83;3.57;;;13.50;99.90;;;;;;6154533;23;20418;-71
2023/09/03 05:27:31;;;;;;;4.53;4.13;;;13.60;99.90;;;;;;6155126;23;20426;-69
2023/09/03 05:29:59;;;;;;;3.93;3.30;;;13.60;99.90;;;;;;6153203;23;21138;-70
2023/09/03 05:32:26;;;;;;;4.00;3.77;;;13.60;99.90;;;;;;6154582;23;20438;-70
2023/09/03 05:34:52;;;;;;;3.87;3.67;;;13.60;99.90;;;;;;6154271;23;21245;-68
2023/09/03 05:37:19;;;;;;;5.47;5.07;;;13.70;99.90;;;;;;6154153;23;20454;-70
2023/09/03 05:39:46;;;;;;;4.60;4.10;;;13.70;99.90;;;;;;6154830;23;20431;-70
2023/09/03 05:42:12;;;;;;;4.77;3.87;;;13.70;99.90;;;;;;6155330;23;20445;-69
2023/09/03 05:44:41;;;;;;;3.83;3.63;;;13.80;99.90;;;;;;6155186;23;20419;-70
2023/09/03 05:47:07;;;;;;;4.23;3.90;;;13.80;99.90;;;;;;6154153;23;20438;-70
2023/09/03 05:49:35;;;;;;;5.60;3.97;;;13.80;99.90;;;;;;6153143;23;20419;-69
2023/09/03 05:52:01;;;;;;;5.10;4.37;;;13.80;99.90;;;;;;6154029;23;20442;-69
2023/09/03 05:54:28;;;;;;;4.20;3.60;;;13.80;99.90;;;;;;6154553;23;20422;-69
2023/09/03 05:56:55;;;;;;;4.63;4.23;;;13.80;99.90;;;;;;6154142;23;20444;-69
2023/09/03 05:59:22;;;;;;;4.00;3.77;;;13.90;99.90;;;;;;6152335;23;20425;-69
2023/09/03 06:01:50;;;;;;;5.87;4.03;;;13.90;99.90;;;;;;6152440;23;20453;-69
2023/09/03 06:04:16;;;;;;;4.60;4.20;;;13.90;99.90;;;;;;6154421;23;20418;-69
2023/09/03 06:06:43;;;;;;;5.20;4.00;;;14.00;99.90;;;;;;6152293;23;21095;-70
2023/09/03 06:09:10;;;;;;;4.20;3.87;;;14.00;99.90;;;;;;6154053;23;20911;-70
2023/09/03 06:11:37;;;;;;;4.03;3.83;;;14.00;99.90;;;;;;6153885;23;20443;-69
2023/09/03 06:14:04;;;;;;;4.53;4.27;;;14.10;99.90;;;;;;6154748;23;20427;-69
2023/09/03 06:16:30;;;;;;;5.10;3.90;;;14.10;99.90;;;;;;6153934;23;20450;-69
2023/09/03 06:18:58;;;;;;;4.50;4.20;;;14.10;99.90;;;;;;6154285;23;20430;-69
2023/09/03 06:21:26;;;;;;;4.00;3.70;;;14.20;99.90;;;;;;6153912;23;20738;-68
2023/09/03 06:23:53;;;;;;;4.07;3.77;;;14.30;99.90;;;;;;6154319;23;20418;-68
2023/09/03 06:26:20;;;;;;;3.43;3.17;;;14.30;99.90;;;;;;6154065;23;20415;-69
2023/09/03 06:28:47;;;;;;;4.10;3.80;;;14.50;99.90;;;;;;6152739;23;20419;-68
2023/09/03 06:31:14;;;;;;;3.67;3.43;;;14.60;99.90;;;;;;6154360;23;20438;-69
2023/09/03 06:33:42;;;;;;;3.80;3.60;;;14.80;99.90;;;;;;6154405;23;20418;-68
2023/09/03 06:36:11;;;;;;;6.13;3.63;;;14.90;99.90;;;;;;6154007;23;20449;-70
2023/09/03 06:38:38;;;;;;;3.50;3.20;;;15.00;99.90;;;;;;6153948;23;20429;-68
2023/09/03 06:41:05;;;;;;;2.93;2.83;;;15.10;99.90;;;;;;6153377;23;20744;-68
2023/09/03 06:43:32;;;;;;;3.63;2.83;;;15.20;99.90;;;;;;6153843;23;20418;-67
2023/09/03 06:45:58;;;;;;;2.50;2.40;;;15.20;99.90;;;;;;6153127;23;20419;-68
2023/09/03 06:48:25;;;;;;;2.87;2.67;;;15.20;99.90;;;;;;6153071;23;20419;-69
2023/09/03 06:50:52;;;;;;;3.17;3.07;;;15.30;99.90;;;;;;6153857;23;20446;-68
2023/09/03 06:53:20;;;;;;;2.53;2.43;;;15.30;99.90;;;;;;6153312;23;20426;-68
2023/09/03 06:55:46;;;;;;;3.00;2.80;;;15.40;99.90;;;;;;6153623;23;20444;-68
2023/09/03 06:58:13;;;;;;;2.90;2.70;;;15.50;99.90;;;;;;6152609;23;20435;-69
2023/09/03 07:00:40;;;;;;;2.53;2.43;;;15.60;99.90;;;;;;6153141;23;20947;-69
2023/09/03 07:03:07;;;;;;;2.60;2.40;;;15.70;99.90;;;;;;6153415;23;20450;-70
2023/09/03 07:05:34;;;;;;;3.30;3.10;;;15.80;99.90;;;;;;6153745;23;20419;-68
2023/09/03 07:08:00;;;;;;;2.10;2.00;;;15.90;99.90;;;;;;6152935;23;20415;-69
2023/09/03 07:10:28;;;;;;;2.37;2.30;;;16.00;99.90;;;;;;6151011;23;20455;-70
2023/09/03 07:12:55;;;;;;;2.20;2.10;;;16.10;99.90;;;;;;6151505;23;20419;-68
2023/09/03 07:15:22;;;;;;;3.40;2.20;;;16.20;99.90;;;;;;6153473;23;20423;-69
2023/09/03 07:17:49;;;;;;;1.50;1.50;;;16.30;99.90;;;;;;6153645;23;20451;-68
2023/09/03 07:20:16;;;;;;;3.03;2.33;;;16.30;99.90;;;;;;6153205;23;20419;-68
2023/09/03 07:22:42;;;;;;;1.67;1.57;;;16.30;99.90;;;;;;6153149;23;20423;-70
2023/09/03 07:25:09;;;;;;;1.33;1.33;;;16.40;99.90;;;;;;6153745;23;20420;-70
2023/09/03 07:27:39;;;;;;;1.40;1.40;;;16.40;99.90;;;;;;6152574;23;20444;-70
2023/09/03 07:30:07;;;;;;;1.30;1.30;;;16.50;99.90;;;;;;6153258;23;20428;-71
2023/09/03 07:32:34;;;;;;;1.60;1.60;;;16.60;99.90;;;;;;6153109;23;20547;-71
2023/09/03 07:35:01;;;;;;;1.57;1.47;;;16.70;99.90;;;;;;6152922;23;20419;-70
2023/09/03 07:37:27;;;;;;;1.20;1.20;;;16.80;99.90;;;;;;6153711;23;20509;-70
2023/09/03 07:39:54;;;;;;;1.03;1.03;;;16.90;99.90;;;;;;6153638;23;20503;-71
2023/09/03 07:42:21;;;;;;;0.80;0.80;;;17.00;99.90;;;;;;6153633;23;20442;-71
2023/09/03 07:44:49;;;;;;;1.53;0.90;;;17.00;99.90;;;;;;6153466;23;20448;-71
2023/09/03 07:47:15;;;;;;;0.97;0.97;;;17.00;99.90;;;;;;6151850;23;20416;-70
2023/09/03 07:49:43;;;;;;;0.87;0.87;;;17.10;99.90;;;;;;6153168;23;20425;-71
2023/09/03 07:52:09;;;;;;;1.93;0.97;;;17.10;99.90;;;;;;6153027;23;20533;-71
2023/09/03 07:54:36;;;;;;;0.97;0.97;;;17.10;99.90;;;;;;6153598;23;20419;-70
2023/09/03 07:57:03;;;;;;;0.80;0.80;;;17.20;99.90;;;;;;6152483;23;20782;-71
2023/09/03 07:59:29;;;;;;;1.00;1.00;;;17.30;99.90;;;;;;6152592;23;20426;-69
2023/09/03 08:02:00;;;;;;;1.10;1.10;;;17.40;99.90;;;;;;6151676;23;21157;-69
2023/09/03 08:04:27;;;;;;;1.03;0.70;;;17.40;99.90;;;;;;6153322;23;20438;-69
2023/09/03 08:06:54;;;;;;;1.03;1.03;;;17.50;99.90;;;;;;6152255;23;20437;-69
2023/09/03 08:09:23;;;;;;;0.80;0.80;;;17.50;99.90;;;;;;6152959;23;20520;-69
2023/09/03 08:11:50;;;;;;;0.70;0.70;;;17.60;99.90;;;;;;6152974;23;20485;-69
2023/09/03 08:14:17;;;;;;;1.03;1.03;;;17.60;99.90;;;;;;6152253;23;20420;-69
2023/09/03 08:16:43;;;;;;;0.50;0.50;;;17.60;99.90;;;;;;6152000;23;20454;-69
2023/09/03 08:19:11;;;;;;;1.40;1.07;;;17.70;99.90;;;;;;6152389;23;20420;-71
2023/09/03 08:21:38;;;;;;;0.73;0.73;;;17.80;99.90;;;;;;6152250;23;20447;-70
2023/09/03 08:24:05;;;;;;;1.00;1.00;;;17.90;99.90;;;;;;6152997;23;20903;-70
2023/09/03 08:26:31;;;;;;;1.17;1.17;;;18.00;99.90;;;;;;6152936;23;20416;-69
2023/09/03 08:28:58;;;;;;;1.17;1.10;;;18.00;99.90;;;;;;6152563;23;20935;-69
2023/09/03 08:31:24;;;;;;;0.93;0.93;;;18.10;99.90;;;;;;6153597;23;20608;-70
2023/09/03 08:33:53;;;;;;;0.90;0.90;;;18.10;99.90;;;;;;6154588;23;20426;-70
2023/09/03 08:36:22;;;;;;;1.00;1.00;;;18.20;99.90;;;;;;6153562;23;20970;-69
2023/09/03 08:38:49;;;;;;;1.13;0.80;;;18.20;99.90;;;;;;6152919;23;20899;-72
2023/09/03 08:41:16;;;;;;;1.00;1.00;;;18.30;99.90;;;;;;6153841;23;20446;-70
2023/09/03 08:43:46;;;;;;;0.93;0.93;;;18.30;99.90;;;;;;6152820;23;20420;-70
2023/09/03 08:46:16;;;;;;;1.27;1.17;;;18.30;99.90;;;;;;6152993;23;20436;-69
2023/09/03 08:48:44;;;;;;;1.27;1.27;;;18.40;99.90;;;;;;6152538;23;20424;-71
2023/09/03 08:51:11;;;;;;;0.97;0.97;;;18.50;99.90;;;;;;6152866;23;20440;-71
2023/09/03 08:53:40;;;;;;;1.00;1.00;;;18.60;99.90;;;;;;6153578;23;20426;-70
2023/09/03 08:56:07;;;;;;;0.70;0.70;;;18.70;99.90;;;;;;6153155;23;20432;-69
2023/09/03 08:58:34;;;;;;;0.93;0.93;;;18.70;99.90;;;;;;6153462;23;20937;-70
2023/09/03 09:01:00;;;;;;;1.10;1.10;;;18.70;99.90;;;;;;6154540;23;20983;-69
2023/09/03 09:03:30;;;;;;;1.17;1.17;;;18.80;99.90;;;;;;6155385;23;20433;-70
2023/09/03 09:05:57;;;;;;;0.90;0.90;;;18.80;99.90;;;;;;6155036;23;20429;-70
2023/09/03 09:08:25;;;;;;;3.90;0.90;;;18.90;99.90;;;;;;6154397;23;20418;-69
2023/09/03 09:10:54;;;;;;;1.03;1.03;;;19.10;99.90;;;;;;6154570;23;20442;-70
2023/09/03 09:13:24;;;;;;;1.10;1.10;;;19.10;99.90;;;;;;6154836;23;20421;-70
2023/09/03 09:15:51;;;;;;;0.90;0.90;;;19.20;99.90;;;;;;6154938;23;20425;-71
2023/09/03 09:18:18;;;;;;;0.90;0.90;;;19.20;99.90;;;;;;6155934;23;20453;-70
2023/09/03 09:20:45;;;;;;;1.27;0.80;;;19.30;99.90;;;;;;6155705;23;20442;-70
2023/09/03 09:23:19;;;;;;;1.17;1.17;;;19.40;99.90;;;;;;6155224;23;20747;-71
2023/09/03 09:25:45;;;;;;;1.73;1.57;;;19.40;99.90;;;;;;6155443;23;20411;-72
2023/09/03 09:28:14;;;;;;;0.80;0.80;;;19.50;99.90;;;;;;6154867;23;20429;-71
2023/09/03 09:30:53;;;;;;;0.80;0.80;;;19.50;99.90;;;;;;6155511;23;20443;-70
2023/09/03 09:33:20;;;;;;;0.80;0.80;;;19.60;99.90;;;;;;6155075;23;20403;-70
2023/09/03 09:35:47;;;;;;;1.57;1.57;;;19.70;99.90;;;;;;6155222;23;20426;-71
2023/09/03 09:38:15;;;;;;;1.00;1.00;;;19.80;99.90;;;;;;6154160;23;20510;-70
2023/09/03 09:40:42;;;;;;;1.53;0.90;;;19.90;99.90;;;;;;6154261;23;20764;-71
2023/09/03 09:43:09;;;;;;;0.73;0.73;;;20.00;99.90;;;;;;6155186;23;20419;-70
2023/09/03 09:45:47;;;;;;;2.43;1.57;;;20.10;99.90;;;;;;6154966;23;20419;-71
2023/09/03 09:48:14;;;;;;;0.83;0.83;;;20.10;99.90;;;;;;6154762;23;20403;-70
2023/09/03 09:50:42;;;;;;;1.30;1.30;;;20.20;99.90;;;;;;6154120;23;20438;-71
2023/09/03 09:53:21;;;;;;;1.30;1.20;;;20.30;99.90;;;;;;6154252;23;20424;-71
2023/09/03 09:55:48;;;;;;;0.90;0.90;;;20.30;99.90;;;;;;6154255;23;20408;-70
2023/09/03 09:58:15;;;;;;;0.97;0.97;;;20.30;99.90;;;;;;6153487;23;20465;-70
2023/09/03 10:00:43;;;;;;;1.23;1.00;;;20.30;99.90;;;;;;6154213;23;20447;-70
2023/09/03 10:03:12;;;;;;;1.10;1.10;;;20.30;99.90;;;;;;6164069;23;20422;-70
2023/09/03 10:05:47;;;;;;;1.10;1.10;;;20.50;99.90;;;;;;6153591;23;20506;-70
2023/09/03 10:08:16;;;;;;;1.20;1.10;;;20.50;99.90;;;;;;6153739;23;20422;-71
2023/09/03 10:10:43;;;;;;;1.00;1.00;;;20.60;99.90;;;;;;6153236;23;20745;-71
2023/09/03 10:13:10;;;;;;;1.90;0.80;;;20.50;99.90;;;;;;6153668;23;20925;-70
2023/09/03 10:15:40;;;;;;;1.47;1.37;;;20.50;99.90;;;;;;6153911;23;20419;-70
2023/09/03 10:18:09;;;;;;;0.90;0.90;;;20.50;99.90;;;;;;6154593;23;20530;-70
2023/09/03 10:20:37;;;;;;;1.40;1.33;;;20.60;99.90;;;;;;6152768;23;20924;-70
2023/09/03 10:23:04;;;;;;;0.70;0.70;;;20.70;99.90;;;;;;6152966;23;20750;-70
2023/09/03 10:25:34;;;;;;;0.77;0.77;;;20.80;99.90;;;;;;6154204;23;20573;-70
2023/09/03 10:28:05;;;;;;;1.60;1.50;;;20.90;99.90;;;;;;6153883;23;20424;-70
2023/09/03 10:30:35;;;;;;;2.37;2.17;;;21.00;99.90;;;;;;6153591;23;20444;-71
2023/09/03 10:33:03;;;;;;;1.10;1.10;;;21.10;99.90;;;;;;6153935;23;20420;-69
2023/09/03 10:35:31;;;;;;;1.20;0.90;;;21.10;99.90;;;;;;6153898;23;20422;-70
2023/09/03 10:37:58;;;;;;;1.30;1.30;;;21.10;99.90;;;;;;6151889;23;20455;-72
2023/09/03 10:40:28;;;;;;;1.23;1.10;;;21.10;99.90;;;;;;6153356;23;20421;-70
2023/09/03 10:43:28;;;;;;;1.30;1.30;;;20.90;99.90;;;;;;6153211;23;20971;-70
2023/09/03 10:46:05;;;;;;;1.37;1.37;;;21.00;99.90;;;;;;6067795;23;20430;-69
2023/09/03 10:48:34;;;;;;;1.10;1.10;;;21.10;99.90;;;;;;6153122;23;20416;-69
2023/09/03 10:51:02;;;;;;;1.00;1.00;;;21.00;99.90;;;;;;6152628;23;20446;-69
2023/09/03 10:53:36;;;;;;;0.70;0.70;;;21.00;99.90;;;;;;6152298;23;20428;-70
2023/09/03 10:56:11;;;;;;;0.90;0.90;;;21.10;99.90;;;;;;6153463;23;20420;-71
2023/09/03 10:58:54;;;;;;;0.90;0.90;;;21.20;99.90;;;;;;6153278;23;20431;-71
2023/09/03 11:01:22;;;;;;;1.43;1.33;;;21.20;99.90;;;;;;6152824;23;20454;-69
2023/09/03 11:03:50;;;;;;;0.97;0.97;;;21.10;99.90;;;;;;6153148;23;20421;-70
2023/09/03 11:06:21;;;;;;;1.00;1.00;;;21.10;99.90;;;;;;6161941;23;20418;-69
2023/09/03 11:08:48;;;;;;;0.87;0.87;;;21.10;99.90;;;;;;6152555;23;20400;-71
2023/09/03 11:11:22;;;;;;;1.13;1.10;;;21.20;99.90;;;;;;6153017;23;20447;-71
2023/09/03 11:13:53;;;;;;;1.30;1.20;;;21.20;99.90;;;;;;6153698;23;20452;-70
2023/09/03 11:16:26;;;;;;;1.03;1.03;;;21.20;99.90;;;;;;6153394;23;20424;-71
2023/09/03 11:18:53;;;;;;;1.47;1.47;;;21.20;99.90;;;;;;6152250;23;20442;-71
2023/09/03 11:21:24;;;;;;;1.00;1.00;;;21.30;99.90;;;;;;6151984;23;20446;-71
2023/09/03 11:24:05;;;;;;;0.90;0.90;;;21.20;99.90;;;;;;6152845;23;20410;-71
2023/09/03 11:26:34;;;;;;;1.13;1.13;;;21.30;99.90;;;;;;6152072;23;20415;-71
2023/09/03 11:29:01;;;;;;;1.57;1.57;;;21.40;99.90;;;;;;6152830;23;20422;-71
2023/09/03 11:31:29;;;;;;;1.13;0.83;;;21.40;99.90;;;;;;6153191;23;20443;-71
2023/09/03 11:33:56;;;;;;;1.03;1.03;;;21.40;99.90;;;;;;6152339;23;20428;-70
2023/09/03 11:36:25;;;;;;;0.90;0.90;;;21.50;99.90;;;;;;6152524;23;20420;-70
2023/09/03 11:38:52;;;;;;;1.00;1.00;;;21.50;99.90;;;;;;6152128;23;20448;-71
2023/09/03 11:41:19;;;;;;;1.30;1.20;;;21.70;99.90;;;;;;6152190;23;20453;-71
2023/09/03 11:43:47;;;;;;;1.00;1.00;;;21.60;99.90;;;;;;6153152;23;20426;-70
2023/09/03 11:46:15;;;;;;;1.00;1.00;;;21.50;99.90;;;;;;6152802;23;20421;-71
2023/09/03 11:48:47;;;;;;;1.20;1.20;;;21.40;99.90;;;;;;6152445;23;20439;-70
2023/09/03 11:51:24;;;;;;;0.90;0.90;;;21.40;99.90;;;;;;6151970;23;20698;-69
2023/09/03 11:53:50;;;;;;;1.53;1.40;;;21.50;99.90;;;;;;6152708;23;21055;-69
2023/09/03 11:56:21;;;;;;;1.37;0.83;;;21.50;99.90;;;;;;6151672;23;20428;-70
2023/09/03 11:58:51;;;;;;;1.27;1.27;;;21.50;99.90;;;;;;6151960;23;20440;-69
2023/09/03 12:01:18;;;;;;;0.70;0.70;;;21.60;99.90;;;;;;6152138;23;20926;-70
2023/09/03 12:03:45;;;;;;;1.13;1.13;;;21.60;99.90;;;;;;6153287;23;20751;-69
2023/09/03 12:06:12;;;;;;;1.20;1.20;;;21.70;99.90;;;;;;6152785;23;20421;-70
2023/09/03 12:08:40;;;;;;;0.93;0.93;;;21.70;99.90;;;;;;6152538;23;20973;-69
2023/09/03 12:11:07;;;;;;;1.00;1.00;;;21.70;99.90;;;;;;6152346;23;20448;-70
2023/09/03 12:13:37;;;;;;;1.23;1.23;;;21.70;99.90;;;;;;6152293;23;20544;-70
2023/09/03 12:16:09;;;;;;;0.87;0.87;;;21.80;99.90;;;;;;6152338;23;20413;-70
2023/09/03 12:18:37;;;;;;;1.50;1.50;;;21.70;99.90;;;;;;6153666;23;20496;-70
2023/09/03 12:21:05;;;;;;;1.30;1.30;;;21.70;99.90;;;;;;6153102;23;20442;-71
2023/09/03 12:23:34;;;;;;;1.30;1.30;;;21.80;99.90;;;;;;6153760;23;20449;-71
2023/09/03 12:26:02;;;;;;;1.43;1.43;;;21.80;99.90;;;;;;6154098;23;20421;-71
2023/09/03 12:28:37;;;;;;;0.90;0.90;;;21.70;99.90;;;;;;6152964;23;20422;-71
2023/09/03 12:31:05;;;;;;;1.33;1.23;;;21.70;99.90;;;;;;6153834;23;20440;-72
2023/09/03 12:33:46;;;;;;;1.53;1.53;;;21.70;99.90;;;;;;6156656;23;20422;-72
2023/09/03 12:36:15;;;;;;;1.30;1.30;;;21.60;99.90;;;;;;6155409;23;20420;-71
2023/09/03 12:38:56;;;;;;;0.93;0.93;;;21.60;99.90;;;;;;6154862;23;20507;-71
2023/09/03 12:41:26;;;;;;;1.03;1.03;;;21.60;99.90;;;;;;6155178;23;20495;-71
2023/09/03 12:43:53;;;;;;;1.23;1.00;;;21.60;99.90;;;;;;6153706;23;20431;-70
2023/09/03 12:46:20;;;;;;;1.13;1.13;;;21.60;99.90;;;;;;6155216;23;20444;-72
2023/09/03 12:48:47;;;;;;;1.27;1.27;;;21.80;99.90;;;;;;6154994;23;20429;-70
2023/09/03 12:51:16;;;;;;;1.10;1.00;;;21.90;99.90;;;;;;6153787;23;20969;-72
2023/09/03 12:53:44;;;;;;;1.10;1.10;;;21.80;99.90;;;;;;6154896;23;20500;-71
2023/09/03 12:56:11;;;;;;;2.43;2.03;;;21.90;99.90;;;;;;6154234;23;20430;-71
2023/09/03 12:58:39;;;;;;;1.10;0.97;;;22.00;99.90;;;;;;6154350;23;20446;-70
2023/09/03 13:01:08;;;;;;;4.33;1.67;;;22.00;99.90;;;;;;6153525;23;20958;-70
2023/09/03 13:03:34;;;;;;;1.03;1.03;;;22.00;99.90;;;;;;6154821;23;20419;-72
2023/09/03 13:06:01;;;;;;;1.77;1.00;;;22.10;99.90;;;;;;6154758;23;20448;-71
2023/09/03 13:08:29;;;;;;;1.10;1.10;;;22.00;99.90;;;;;;6154108;23;20418;-70
2023/09/03 13:10:56;;;;;;;1.07;1.07;;;22.00;99.90;;;;;;6154246;23;20453;-71
2023/09/03 13:13:22;;;;;;;3.50;1.03;;;22.00;99.90;;;;;;6154694;23;20429;-70
2023/09/03 13:15:51;;;;;;;1.13;1.03;;;22.00;99.90;;;;;;6154378;23;20444;-72
2023/09/03 13:18:18;;;;;;;1.83;1.17;;;22.00;99.90;;;;;;6153177;23;20536;-71
2023/09/03 13:20:44;;;;;;;1.80;1.60;;;22.00;99.90;;;;;;6154023;23;20442;-71
2023/09/03 13:23:12;;;;;;;1.33;1.23;;;22.00;99.90;;;;;;6154906;23;20421;-71
2023/09/03 13:25:39;;;;;;;1.37;1.37;;;22.00;99.90;;;;;;6154730;23;20423;-70
2023/09/03 13:28:08;;;;;;;1.20;1.20;;;22.10;99.90;;;;;;6154935;23;20421;-72
2023/09/03 13:30:35;;;;;;;0.93;0.93;;;22.20;99.90;;;;;;6153971;23;20445;-72
2023/09/03 13:33:04;;;;;;;1.73;1.63;;;22.20;99.90;;;;;;6153552;23;20475;-72
2023/09/03 13:35:31;;;;;;;1.80;1.70;;;22.20;99.90;;;;;;6152809;23;20527;-72
2023/09/03 13:37:58;;;;;;;1.63;1.57;;;22.20;99.90;;;;;;6153035;23;20422;-72
2023/09/03 13:40:25;;;;;;;1.10;1.10;;;22.30;99.90;;;;;;6152991;23;20448;-72
2023/09/03 13:42:52;;;;;;;1.37;1.33;;;22.30;99.90;;;;;;6153406;23;20422;-73
2023/09/03 13:45:19;;;;;;;1.43;1.43;;;22.20;99.90;;;;;;6153380;23;20428;-71
2023/09/03 13:47:45;;;;;;;1.80;1.43;;;22.20;99.90;;;;;;6152857;23;20433;-73
2023/09/03 13:50:13;;;;;;;0.80;0.80;;;22.20;99.90;;;;;;6153996;23;20429;-73
2023/09/03 13:52:40;;;;;;;1.20;1.20;;;22.20;99.90;;;;;;6152045;23;20448;-72
2023/09/03 13:55:08;;;;;;;1.30;1.20;;;22.20;99.90;;;;;;6153958;23;20422;-71
2023/09/03 13:57:34;;;;;;;1.77;1.17;;;22.20;99.90;;;;;;6151493;23;20441;-69
2023/09/03 14:00:01;;;;;;;1.00;1.00;;;22.20;99.90;;;;;;6150015;23;20449;-72
2023/09/03 14:02:29;;;;;;;1.13;1.13;;;22.20;99.90;;;;;;6152805;23;20453;-70
2023/09/03 14:04:57;;;;;;;1.00;1.00;;;22.20;99.90;;;;;;6151831;23;20453;-68
2023/09/03 14:07:25;;;;;;;1.20;1.20;;;22.10;99.90;;;;;;6152878;23;20487;-68
2023/09/03 14:09:55;;;;;;;1.10;1.10;;;22.10;99.90;;;;;;6149781;23;20422;-71
2023/09/03 14:12:24;;;;;;;0.90;0.90;;;22.20;99.90;;;;;;6152444;23;21087;-70
2023/09/03 14:14:51;;;;;;;1.10;1.10;;;22.20;99.90;;;;;;6152939;23;20497;-70
2023/09/03 14:17:18;;;;;;;1.30;1.30;;;22.30;99.90;;;;;;6153192;23;20437;-70
2023/09/03 14:19:46;;;;;;;1.10;1.10;;;22.40;99.90;;;;;;6152966;23;20634;-71
2023/09/03 14:22:13;;;;;;;1.20;1.20;;;22.50;99.90;;;;;;6153028;23;20442;-71
2023/09/03 14:24:42;;;;;;;1.00;1.00;;;22.50;99.90;;;;;;6151011;23;20760;-71
2023/09/03 14:27:08;;;;;;;1.70;1.70;;;22.50;99.90;;;;;;6153321;23;20444;-71
2023/09/03 14:29:35;;;;;;;0.60;0.60;;;22.50;99.90;;;;;;6152776;23;20450;-70
2023/09/03 14:32:03;;;;;;;1.03;1.03;;;22.40;99.90;;;;;;6153321;23;20445;-71
2023/09/03 14:34:29;;;;;;;1.30;1.30;;;22.20;99.90;;;;;;6153221;23;20421;-71
2023/09/03 14:36:56;;;;;;;1.50;1.40;;;22.20;99.90;;;;;;6151636;23;20422;-71
2023/09/03 14:39:23;;;;;;;0.93;0.93;;;22.20;99.90;;;;;;6153102;23;20476;-72
2023/09/03 14:41:51;;;;;;;1.20;1.20;;;22.10;99.90;;;;;;6153183;23;20462;-71
2023/09/03 14:44:18;;;;;;;1.13;1.13;;;22.10;99.90;;;;;;6153393;23;20444;-71
2023/09/03 14:46:45;;;;;;;1.10;1.10;;;22.00;99.90;;;;;;6153168;23;20449;-70
2023/09/03 14:49:12;;;;;;;1.10;1.10;;;21.90;99.90;;;;;;6152471;23;20417;-71
2023/09/03 14:51:39;;;;;;;1.27;1.17;;;21.90;99.90;;;;;;6152633;23;20440;-69
2023/09/03 14:54:06;;;;;;;1.10;1.10;;;21.90;99.90;;;;;;6150230;23;20426;-70
2023/09/03 14:56:32;;;;;;;0.93;0.93;;;21.90;99.90;;;;;;6153092;23;20421;-70
2023/09/03 14:59:01;;;;;;;7.70;5.57;;;22.00;99.90;;;;;;6153548;23;20543;-70
2023/09/03 15:01:28;;;;;;;1.33;1.33;;;21.90;99.90;;;;;;6153371;23;20975;-71
2023/09/03 15:03:55;;;;;;;1.40;1.30;;;21.90;99.90;;;;;;6154087;23;20428;-68
2023/09/03 15:06:23;;;;;;;1.17;1.17;;;21.90;99.90;;;;;;6152851;23;20422;-69
2023/09/03 15:08:50;;;;;;;1.30;1.30;;;21.90;99.90;;;;;;6149797;23;20428;-68
2023/09/03 15:11:17;;;;;;;1.67;1.57;;;21.90;99.90;;;;;;6152774;23;20927;-69
2023/09/03 15:13:48;;;;;;;1.23;1.10;;;21.80;99.90;;;;;;6153695;23;20430;-69
2023/09/03 15:16:16;;;;;;;1.00;1.00;;;21.90;99.90;;;;;;6152401;23;20497;-69
2023/09/03 15:18:42;;;;;;;1.10;1.10;;;21.80;99.90;;;;;;6152751;23;20911;-69
2023/09/03 15:21:09;;;;;;;1.23;1.00;;;21.80;99.90;;;;;;6152067;23;20463;-69
2023/09/03 15:23:36;;;;;;;1.40;1.40;;;21.80;99.90;;;;;;6149576;23;20879;-69
2023/09/03 15:26:04;;;;;;;1.00;1.00;;;21.70;99.90;;;;;;6152868;23;20421;-70
2023/09/03 15:28:31;;;;;;;1.50;1.17;;;21.70;99.90;;;;;;6152695;23;20428;-70
2023/09/03 15:30:57;;;;;;;1.00;1.00;;;21.70;99.90;;;;;;6152912;23;20441;-69
2023/09/03 15:33:25;;;;;;;1.00;1.00;;;21.70;99.90;;;;;;6153252;23;20417;-69
2023/09/03 15:35:52;;;;;;;0.90;0.90;;;21.70;99.90;;;;;;6152391;23;20785;-70
2023/09/03 15:38:19;;;;;;;1.60;1.10;;;21.60;99.90;;;;;;6151836;23;20417;-70
2023/09/03 15:40:46;;;;;;;1.43;1.20;;;21.60;99.90;;;;;;6152280;23;20465;-70
2023/09/03 15:43:13;;;;;;;1.47;1.33;;;21.60;99.90;;;;;;6153009;23;20436;-70
2023/09/03 15:45:40;;;;;;;1.17;1.17;;;21.60;99.90;;;;;;6151885;23;20419;-69
2023/09/03 15:48:08;;;;;;;1.13;1.13;;;21.60;99.90;;;;;;6152617;23;20515;-69
2023/09/03 15:50:40;;;;;;;1.10;1.10;;;21.60;99.90;;;;;;6151807;23;20965;-69
2023/09/03 15:53:07;;;;;;;1.00;1.00;;;21.50;99.90;;;;;;6151571;23;20848;-70
2023/09/03 15:55:34;;;;;;;1.67;1.53;;;21.50;99.90;;;;;;6152258;23;20432;-70
2023/09/03 15:58:00;;;;;;;0.80;0.80;;;21.40;99.90;;;;;;6151374;23;20420;-70
2023/09/03 16:00:27;;;;;;;1.30;1.20;;;21.40;99.90;;;;;;6151524;23;20463;-70
2023/09/03 16:02:54;;;;;;;1.60;1.50;;;21.30;99.90;;;;;;6152302;23;20956;-70
2023/09/03 16:05:21;;;;;;;3.00;1.20;;;21.30;99.90;;;;;;6152742;23;20442;-69
2023/09/03 16:07:49;;;;;;;1.10;1.10;;;21.30;99.90;;;;;;6151035;23;20424;-69
2023/09/03 16:10:16;;;;;;;1.10;1.10;;;21.30;99.90;;;;;;6152042;23;20704;-71
2023/09/03 16:12:42;;;;;;;1.30;1.30;;;21.20;99.90;;;;;;6152082;23;20420;-70
2023/09/03 16:15:10;;;;;;;3.20;3.10;;;21.20;99.90;;;;;;6152859;23;20430;-70
2023/09/03 16:17:37;;;;;;;2.67;2.57;;;21.20;99.90;;;;;;6151134;23;20456;-70
2023/09/03 16:20:05;;;;;;;1.20;1.20;;;21.10;99.90;;;;;;6151685;23;20457;-70
2023/09/03 16:22:32;;;;;;;2.87;1.33;;;21.10;99.90;;;;;;6153424;23;20419;-70
2023/09/03 16:25:00;;;;;;;1.13;1.13;;;21.00;99.90;;;;;;6155046;23;20429;-70
2023/09/03 16:27:27;;;;;;;5.20;1.80;;;20.90;99.90;;;;;;6154281;23;20439;-70
2023/09/03 16:29:53;;;;;;;2.10;1.57;;;20.90;99.90;;;;;;6152833;23;20420;-70
2023/09/03 16:32:20;;;;;;;1.10;1.10;;;20.80;99.90;;;;;;6152218;23;20418;-70
2023/09/03 16:34:49;;;;;;;1.33;1.27;;;20.80;99.90;;;;;;6152846;23;20427;-70
2023/09/03 16:37:16;;;;;;;1.43;1.13;;;20.80;99.90;;;;;;6152259;23;20418;-71
2023/09/03 16:39:43;;;;;;;1.43;1.20;;;20.70;99.90;;;;;;6152539;23;20482;-70
2023/09/03 16:42:11;;;;;;;1.60;1.50;;;20.70;99.90;;;;;;6153249;23;20422;-70
2023/09/03 16:44:37;;;;;;;1.20;1.20;;;20.60;99.90;;;;;;6152705;23;20426;-70
2023/09/03 16:47:04;;;;;;;1.40;1.30;;;20.60;99.90;;;;;;6152618;23;20418;-70
2023/09/03 16:49:31;;;;;;;1.37;1.10;;;20.60;99.90;;;;;;6151261;23;20434;-70
2023/09/03 16:51:58;;;;;;;1.20;1.20;;;20.50;99.90;;;;;;6152343;23;20420;-70